createdAt,value
2018-12-10T00:00:51.199Z,83.24
2018-12-10T00:15:50.270Z,83.36
2018-12-10T00:30:50.934Z,83.52
2018-12-10T00:45:51.834Z,83.04
2018-12-10T01:00:53.350Z,83.28
2018-12-10T01:15:51.260Z,83.38
2018-12-10T01:30:50.724Z,83.46
2018-12-10T01:45:50.609Z,83.91
2018-12-10T02:00:51.927Z,82.99
2018-12-10T02:15:53.433Z,82.51
2018-12-10T02:30:53.378Z,81.29
2018-12-10T02:45:50.687Z,81.37
2018-12-10T03:00:50.710Z,81.12
2018-12-10T03:15:50.601Z,81.47
2018-12-10T03:30:56.935Z,81.34
2018-12-10T03:45:50.491Z,81.75
2018-12-10T04:00:50.440Z,80.62
2018-12-10T04:15:50.933Z,80.10
2018-12-10T04:30:52.832Z,79.02
2018-12-10T04:45:51.579Z,78.59
2018-12-10T05:00:51.676Z,78.59
2018-12-10T05:15:52.578Z,77.65
2018-12-10T05:30:50.227Z,77.87
2018-12-10T05:45:53.372Z,78.49
2018-12-10T06:00:50.835Z,77.85
2018-12-10T06:15:51.630Z,76.35
2018-12-10T06:30:51.191Z,76.94
2018-12-10T06:45:50.017Z,77.42
2018-12-10T07:00:50.457Z,77.70
2018-12-10T07:15:51.452Z,77.72
2018-12-10T07:30:51.479Z,77.91
2018-12-10T07:45:50.331Z,79.34
2018-12-10T08:00:50.197Z,79.26
2018-12-10T08:15:51.719Z,79.64
2018-12-10T08:30:52.571Z,79.56
2018-12-10T08:45:52.439Z,79.60
2018-12-10T09:00:52.967Z,80.12
2018-12-10T09:15:50.717Z,80.32
2018-12-10T09:30:50.663Z,80.01
2018-12-10T09:45:51.182Z,79.33
2018-12-10T10:00:51.078Z,78.89
2018-12-10T10:15:50.972Z,78.79
2018-12-10T10:30:50.993Z,79.18
2018-12-10T10:45:51.838Z,78.87
2018-12-10T11:00:55.887Z,78.50
2018-12-10T11:15:52.654Z,78.81
2018-12-10T11:30:50.538Z,79.04
2018-12-10T11:45:50.448Z,78.75
2018-12-10T12:00:51.320Z,78.54
2018-12-10T12:15:51.417Z,78.08
2018-12-10T12:30:51.172Z,56.96
2018-12-10T12:45:50.652Z,61.96
2018-12-10T13:00:50.618Z,67.01
2018-12-10T13:15:50.563Z,70.99
2018-12-10T13:30:52.972Z,73.40
2018-12-10T13:45:50.768Z,74.74
2018-12-10T14:00:51.097Z,76.29
2018-12-10T14:15:50.888Z,77.89
2018-12-10T14:30:50.708Z,77.94
2018-12-10T14:45:50.476Z,79.11
2018-12-10T15:00:51.496Z,79.00
2018-12-10T15:15:51.297Z,78.27
2018-12-10T15:30:50.740Z,78.03
2018-12-10T15:45:51.219Z,77.59
2018-12-10T16:00:51.100Z,77.54
2018-12-10T16:15:53.059Z,77.25
2018-12-10T16:30:56.539Z,76.85
2018-12-10T16:45:56.082Z,76.33
2018-12-10T17:00:55.904Z,75.32
2018-12-10T17:15:53.365Z,73.99
2018-12-10T17:30:53.513Z,72.21
2018-12-10T17:45:52.869Z,71.46
2018-12-10T18:00:52.951Z,71.77
2018-12-10T18:15:51.503Z,72.12
2018-12-10T18:30:57.990Z,72.40
2018-12-10T18:45:53.048Z,72.31
2018-12-10T19:00:50.900Z,71.85
2018-12-10T19:15:50.895Z,71.00
2018-12-10T19:30:52.661Z,70.23
2018-12-10T19:45:55.667Z,69.91
2018-12-10T20:00:53.710Z,69.97
2018-12-10T20:15:53.852Z,70.08
2018-12-10T20:30:53.616Z,69.58
2018-12-10T20:45:53.508Z,69.15
2018-12-10T21:00:52.690Z,68.35
2018-12-10T21:15:56.097Z,67.65
2018-12-10T21:30:51.186Z,66.88
2018-12-10T21:45:49.511Z,66.10
2018-12-10T22:00:51.526Z,65.91
2018-12-10T22:15:50.355Z,65.43
2018-12-10T22:30:51.308Z,64.31
2018-12-10T22:45:53.300Z,63.20
2018-12-10T23:00:52.796Z,62.94
2018-12-10T23:15:50.635Z,62.43
2018-12-10T23:30:50.501Z,62.48
2018-12-10T23:45:50.918Z,62.39
